createdAt,value
2016-04-12T00:00:58.722Z,22.31
2016-04-12T00:01:58.709Z,22.25
2016-04-12T00:02:58.728Z,22.28
2016-04-12T00:03:58.730Z,22.25
2016-04-12T00:04:58.717Z,22.25
2016-04-12T00:05:58.735Z,22.25
2016-04-12T00:06:58.738Z,22.22
2016-04-12T00:07:58.756Z,22.22
2016-04-12T00:08:59.176Z,22.24
2016-04-12T00:09:58.757Z,22.22
2016-04-12T00:10:58.760Z,22.25
2016-04-12T00:11:58.762Z,22.21
2016-04-12T00:12:58.781Z,22.21
2016-04-12T00:13:58.768Z,22.24
2016-04-12T00:14:58.786Z,22.3
2016-04-12T00:15:58.789Z,22.2
2016-04-12T00:16:58.791Z,22.2
2016-04-12T00:17:58.794Z,22.17
2016-04-12T00:18:58.813Z,22.27
2016-04-12T00:20:03.893Z,22.24
2016-04-12T00:20:58.818Z,22.2
2016-04-12T00:21:58.835Z,22.21
2016-04-12T00:22:58.839Z,22.22
2016-04-12T00:23:58.841Z,22.21
2016-04-12T00:24:58.844Z,22.15
2016-04-12T00:25:58.846Z,22.21
2016-04-12T00:26:58.866Z,22.2
2016-04-12T00:27:58.867Z,22.25
2016-04-12T00:28:58.855Z,22.2
2016-04-12T00:29:58.874Z,22.24
2016-04-12T00:30:58.733Z,22.25
2016-04-12T00:31:58.916Z,22.24
2016-04-12T00:32:58.892Z,22.27
2016-04-12T00:33:58.895Z,22.25
2016-04-12T00:34:58.912Z,22.21
2016-04-12T00:35:58.915Z,22.17
2016-04-12T00:36:58.918Z,22.2
2016-04-12T00:37:58.921Z,22.18
2016-04-12T00:38:58.924Z,22.12
2016-04-12T00:39:58.926Z,22.18
2016-04-12T00:40:58.945Z,22.17
2016-04-12T00:41:58.947Z,22.14
2016-04-12T00:42:58.951Z,22.14
2016-04-12T00:43:58.953Z,22.17
2016-04-12T00:44:58.971Z,22.15
2016-04-12T00:45:58.959Z,22.17
2016-04-12T00:46:58.977Z,22.12
2016-04-12T00:47:58.980Z,22.14
2016-04-12T00:48:58.982Z,22.14
2016-04-12T00:49:59.001Z,22.15
2016-04-12T00:50:59.019Z,22.17
2016-04-12T00:51:58.991Z,22.14
2016-04-12T00:52:59.008Z,22.21
2016-04-12T00:53:59.011Z,22.22
2016-04-12T00:54:59.014Z,22.2
2016-04-12T00:55:59.033Z,22.2
2016-04-12T00:56:59.035Z,22.2
2016-04-12T00:57:59.037Z,22.15
2016-04-12T00:58:59.041Z,22.15
2016-04-12T00:59:59.043Z,22.12
2016-04-12T01:00:59.045Z,22.14
2016-04-12T01:01:59.439Z,22.09
2016-04-12T01:02:59.066Z,22.1
2016-04-12T01:03:59.069Z,22.09
2016-04-12T01:04:59.087Z,22.07
2016-04-12T01:05:59.074Z,22.1
2016-04-12T01:06:59.093Z,22.05
2016-04-12T01:07:59.096Z,22.09
2016-04-12T01:08:59.098Z,22.09
2016-04-12T01:09:59.117Z,22.05
2016-04-12T01:10:59.104Z,22.09
2016-04-12T01:11:59.123Z,22.12
2016-04-12T01:12:59.125Z,22.03
2016-04-12T01:13:59.127Z,22.09
2016-04-12T01:14:59.145Z,22.05
2016-04-12T01:15:59.133Z,22.12
2016-04-12T01:16:59.339Z,21.99
2016-04-12T01:17:59.153Z,22.09
2016-04-12T01:18:59.156Z,22.05
2016-04-12T01:19:59.159Z,22.05
2016-04-12T01:20:59.177Z,22.14
2016-04-12T01:21:59.180Z,22.06
2016-04-12T01:22:59.183Z,22.05
2016-04-12T01:23:59.186Z,22.07
2016-04-12T01:24:59.188Z,22.12
2016-04-12T01:25:59.191Z,22.02
2016-04-12T01:26:59.194Z,22.06
2016-04-12T01:27:59.212Z,22.02
2016-04-12T01:28:59.215Z,22.02
2016-04-12T01:29:59.233Z,22
2016-04-12T01:30:59.204Z,22.09
2016-04-12T01:31:59.457Z,22.07
2016-04-12T01:32:59.241Z,22.07
2016-04-12T01:33:59.243Z,22.05
2016-04-12T01:34:59.246Z,21.98
2016-04-12T01:35:59.249Z,22.05
2016-04-12T01:36:59.251Z,21.99
2016-04-12T01:37:59.254Z,21.99
2016-04-12T01:38:59.273Z,21.99
2016-04-12T01:39:59.275Z,22.02
2016-04-12T01:40:59.293Z,21.83
2016-04-12T01:41:59.328Z,21.9
2016-04-12T01:42:59.283Z,21.91
2016-04-12T01:43:59.302Z,21.96
2016-04-12T01:44:59.304Z,21.9
2016-04-12T01:45:59.307Z,21.91
2016-04-12T01:46:59.388Z,21.91
2016-04-12T01:47:59.328Z,21.96
2016-04-12T01:48:59.315Z,21.94
2016-04-12T01:49:59.333Z,21.94
2016-04-12T01:50:59.336Z,21.94
2016-04-12T01:51:59.355Z,21.92
2016-04-12T01:52:59.341Z,21.91
2016-04-12T01:53:59.344Z,22
2016-04-12T01:54:59.378Z,21.96
2016-04-12T01:55:59.350Z,21.88
2016-04-12T01:56:59.369Z,21.9
2016-04-12T01:57:59.386Z,21.99
2016-04-12T01:58:59.373Z,21.94
2016-04-12T01:59:59.392Z,21.88
2016-04-12T02:00:59.379Z,21.91
2016-04-12T02:01:59.632Z,21.92
2016-04-12T02:02:59.244Z,21.96
2016-04-12T02:03:59.402Z,21.88
2016-04-12T02:04:59.421Z,21.99
2016-04-12T02:05:59.407Z,21.92
2016-04-12T02:06:59.426Z,21.94
2016-04-12T02:07:59.429Z,21.91
2016-04-12T02:08:59.447Z,21.94
2016-04-12T02:09:59.434Z,21.99
2016-04-12T02:10:59.452Z,21.91
2016-04-12T02:11:59.455Z,21.9
2016-04-12T02:12:59.458Z,21.9
2016-04-12T02:13:59.461Z,21.96
2016-04-12T02:14:59.463Z,22.02
2016-04-12T02:15:59.481Z,21.92
2016-04-12T02:16:59.547Z,21.94
2016-04-12T02:17:59.487Z,21.91
2016-04-12T02:18:59.490Z,21.91
2016-04-12T02:19:59.508Z,21.98
2016-04-12T02:20:59.511Z,21.91
2016-04-12T02:21:59.514Z,21.92
2016-04-12T02:22:59.516Z,21.94
2016-04-12T02:23:59.519Z,21.92
2016-04-12T02:24:59.522Z,21.91
2016-04-12T02:25:59.539Z,21.88
2016-04-12T02:26:59.527Z,21.91
2016-04-12T02:27:59.544Z,21.9
2016-04-12T02:28:59.547Z,21.86
2016-04-12T02:29:59.550Z,21.9
2016-04-12T02:30:59.552Z,21.86
2016-04-12T02:31:59.649Z,21.9
2016-04-12T02:32:59.558Z,21.91
2016-04-12T02:33:59.577Z,21.96
2016-04-12T02:34:59.580Z,21.91
2016-04-12T02:35:59.583Z,21.91
2016-04-12T02:36:59.585Z,22.02
2016-04-12T02:37:59.588Z,21.92
2016-04-12T02:38:59.590Z,22.03
2016-04-12T02:39:59.624Z,21.91
2016-04-12T02:40:59.627Z,21.88
2016-04-12T02:41:59.614Z,21.9
2016-04-12T02:42:59.617Z,21.92
2016-04-12T02:43:59.651Z,22.02
2016-04-12T02:44:59.638Z,21.98
2016-04-12T02:45:59.640Z,21.92
2016-04-12T02:46:59.831Z,22.03
2016-04-12T02:47:59.645Z,22.06
2016-04-12T02:48:59.648Z,22.05
2016-04-12T02:49:59.667Z,22.03
2016-04-12T02:50:59.669Z,21.96
2016-04-12T02:51:59.672Z,21.9
2016-04-12T02:52:59.675Z,21.99
2016-04-12T02:53:59.536Z,21.92
2016-04-12T02:54:59.696Z,21.91
2016-04-12T02:55:59.699Z,21.94
2016-04-12T02:56:59.716Z,21.99
2016-04-12T02:57:59.704Z,22.05
2016-04-12T02:58:59.706Z,22
2016-04-12T02:59:59.709Z,21.96
2016-04-12T03:00:59.727Z,21.91
2016-04-12T03:01:59.730Z,22.03
2016-04-12T03:02:59.732Z,21.91
2016-04-12T03:03:59.735Z,22.07
2016-04-12T03:04:59.738Z,22.06
2016-04-12T03:05:59.740Z,22.02
2016-04-12T03:06:59.759Z,22.09
2016-04-12T03:07:59.762Z,22.12
2016-04-12T03:08:59.764Z,22.09
2016-04-12T03:09:59.782Z,22.06
2016-04-12T03:10:59.770Z,22.06
2016-04-12T03:11:59.773Z,22.02
2016-04-12T03:12:59.791Z,22.03
2016-04-12T03:13:59.793Z,21.92
2016-04-12T03:14:59.796Z,21.9
2016-04-12T03:15:59.830Z,22.03
2016-04-12T03:16:59.817Z,22.02
2016-04-12T03:17:59.820Z,22.06
2016-04-12T03:18:59.822Z,21.91
2016-04-12T03:19:59.826Z,22
2016-04-12T03:20:59.829Z,21.92
2016-04-12T03:21:59.847Z,22.02
2016-04-12T03:22:59.850Z,22.05
2016-04-12T03:23:59.852Z,22.06
2016-04-12T03:24:59.855Z,22
2016-04-12T03:25:59.858Z,22.05
2016-04-12T03:26:59.875Z,22.03
2016-04-12T03:27:59.863Z,22.05
2016-04-12T03:28:59.880Z,21.91
2016-04-12T03:29:59.883Z,22.05
2016-04-12T03:31:28.121Z,22.03
2016-04-12T03:31:59.888Z,22.05
2016-04-12T03:32:59.907Z,22.02
2016-04-12T03:33:59.910Z,21.91
2016-04-12T03:34:59.913Z,22.06
2016-04-12T03:35:59.962Z,21.99
2016-04-12T03:36:59.934Z,22.06
2016-04-12T03:37:59.921Z,22.09
2016-04-12T03:38:59.924Z,22.05
2016-04-12T03:39:59.943Z,22.06
2016-04-12T03:40:59.945Z,22.05
2016-04-12T03:41:59.948Z,22.06
2016-04-12T03:42:59.950Z,22.12
2016-04-12T03:43:59.953Z,22.09
2016-04-12T03:44:59.987Z,22.02
2016-04-12T03:45:59.973Z,22.1
2016-04-12T03:46:59.976Z,22.07
2016-04-12T03:47:59.994Z,22.03
2016-04-12T03:48:59.981Z,22.07
2016-04-12T03:50:00.000Z,22.15
2016-04-12T03:50:59.986Z,22
2016-04-12T03:52:00.005Z,22.1
2016-04-12T03:53:00.023Z,22
2016-04-12T03:54:00.011Z,22.1
2016-04-12T03:55:00.029Z,22.14
2016-04-12T03:55:59.875Z,22.05
2016-04-12T03:57:00.050Z,22.05
2016-04-12T03:58:00.036Z,22
2016-04-12T03:59:00.040Z,22.1
2016-04-12T04:00:00.058Z,22.1
2016-04-12T04:01:00.061Z,22.05
2016-04-12T04:02:00.063Z,22.07
2016-04-12T04:03:00.066Z,22.05
2016-04-12T04:04:00.085Z,22.06
2016-04-12T04:05:00.088Z,22.09
2016-04-12T04:06:00.090Z,22.05
2016-04-12T04:07:00.092Z,22.09
2016-04-12T04:08:00.142Z,22.06
2016-04-12T04:09:00.099Z,22.05
2016-04-12T04:10:00.101Z,22.06
2016-04-12T04:11:00.135Z,22.05
2016-04-12T04:12:00.168Z,22.05
2016-04-12T04:13:00.140Z,22.02
2016-04-12T04:14:00.143Z,22.06
2016-04-12T04:15:00.145Z,22.12
2016-04-12T04:16:00.132Z,22.06
2016-04-12T04:17:00.150Z,22.03
2016-04-12T04:18:00.154Z,22.03
2016-04-12T04:19:00.156Z,22.03
2016-04-12T04:20:00.159Z,22.12
2016-04-12T04:21:00.161Z,22.05
2016-04-12T04:22:00.164Z,22
2016-04-12T04:23:00.026Z,22.06
2016-04-12T04:24:00.185Z,22.05
2016-04-12T04:25:00.188Z,22.09
2016-04-12T04:26:00.191Z,22.12
2016-04-12T04:27:00.209Z,22.14
2016-04-12T04:28:00.211Z,22.03
2016-04-12T04:29:00.214Z,22.06
2016-04-12T04:30:00.217Z,22.05
2016-04-12T04:31:00.219Z,22.03
2016-04-12T04:32:00.238Z,22.06
2016-04-12T04:33:00.241Z,22.05
2016-04-12T04:34:00.243Z,22.1
2016-04-12T04:35:00.230Z,22.1
2016-04-12T04:36:00.263Z,22.12
2016-04-12T04:37:00.252Z,22.15
2016-04-12T04:38:00.269Z,22.1
2016-04-12T04:39:00.257Z,22.09
2016-04-12T04:40:00.275Z,22.03
2016-04-12T04:41:00.277Z,22.07
2016-04-12T04:42:00.280Z,22.05
2016-04-12T04:43:00.283Z,22.03
2016-04-12T04:44:00.301Z,22.1
2016-04-12T04:45:00.304Z,22.1
2016-04-12T04:46:00.307Z,22.05
2016-04-12T04:47:00.309Z,22.1
2016-04-12T04:48:00.312Z,22.14
2016-04-12T04:49:00.331Z,22.09
2016-04-12T04:50:00.318Z,22.03
2016-04-12T04:51:00.320Z,22.12
2016-04-12T04:52:00.339Z,22.1
2016-04-12T04:53:00.341Z,22.12
2016-04-12T04:54:00.345Z,22.14
2016-04-12T04:55:00.347Z,22.15
2016-04-12T04:56:00.350Z,22.06
2016-04-12T04:57:00.367Z,22.2
2016-04-12T04:58:00.369Z,22.17
2016-04-12T04:59:00.373Z,22.17
2016-04-12T05:00:00.375Z,22.12
2016-04-12T05:01:00.394Z,22.14
2016-04-12T05:02:00.397Z,22.17
2016-04-12T05:03:00.383Z,22.15
2016-04-12T05:04:00.402Z,22.21
2016-04-12T05:05:00.405Z,22.18
2016-04-12T05:06:00.408Z,22.2
2016-04-12T05:07:00.426Z,22.21
2016-04-12T05:08:00.429Z,22.21
2016-04-12T05:09:00.947Z,22.24
2016-04-12T05:10:00.435Z,22.22
2016-04-12T05:11:00.431Z,22.17
2016-04-12T05:12:00.448Z,22.27
2016-04-12T05:13:00.468Z,22.2
2016-04-12T05:14:00.454Z,22.17
2016-04-12T05:15:00.456Z,22.24
2016-04-12T05:16:00.460Z,22.2
2016-04-12T05:17:00.478Z,22.22
2016-04-12T05:18:00.481Z,22.17
2016-04-12T05:19:00.483Z,22.15
2016-04-12T05:20:00.486Z,22.17
2016-04-12T05:21:00.505Z,22.18
2016-04-12T05:22:00.491Z,22.22
2016-04-12T05:23:00.510Z,22.25
2016-04-12T05:24:00.513Z,22.3
2016-04-12T05:25:00.516Z,22.25
2016-04-12T05:26:00.519Z,22.24
2016-04-12T05:27:00.536Z,22.22
2016-04-12T05:28:00.524Z,22.25
2016-04-12T05:29:00.541Z,22.1
2016-04-12T05:30:00.544Z,22.15
2016-04-12T05:31:00.547Z,22.18
2016-04-12T05:32:00.565Z,22.15
2016-04-12T05:33:00.615Z,22.14
2016-04-12T05:34:00.570Z,22.21
2016-04-12T05:35:00.574Z,22.14
2016-04-12T05:36:00.576Z,22.22
2016-04-12T05:37:00.578Z,22.21
2016-04-12T05:38:00.582Z,22.27
2016-04-12T05:39:00.599Z,22.42
2016-04-12T05:40:00.884Z,22.35
2016-04-12T05:41:00.605Z,22.57
2016-04-12T05:42:00.607Z,22.72
2016-04-12T05:43:00.610Z,22.77
2016-04-12T05:44:00.612Z,22.8
2016-04-12T05:45:00.648Z,22.82
2016-04-12T05:46:00.634Z,22.9
2016-04-12T05:47:00.637Z,23.02
2016-04-12T05:48:00.670Z,22.86
2016-04-12T05:49:00.658Z,22.77
2016-04-12T05:50:00.661Z,22.67
2016-04-12T05:51:00.663Z,22.65
2016-04-12T05:52:00.681Z,23.05
2016-04-12T05:53:00.684Z,23.6
2016-04-12T05:54:00.687Z,23.8
2016-04-12T05:55:00.689Z,23.76
2016-04-12T05:56:00.692Z,23.85
2016-04-12T05:57:00.695Z,23.93
2016-04-12T05:58:00.697Z,24.1
2016-04-12T05:59:00.700Z,24.37
2016-04-12T06:00:00.719Z,24.62
2016-04-12T06:01:00.721Z,24.49
2016-04-12T06:02:00.740Z,24.42
2016-04-12T06:03:00.821Z,24.3
2016-04-12T06:04:00.746Z,24.42
2016-04-12T06:05:00.748Z,24.55
2016-04-12T06:06:00.750Z,24.99
2016-04-12T06:07:00.769Z,25.51
2016-04-12T06:08:00.771Z,25.79
2016-04-12T06:09:00.774Z,25.67
2016-04-12T06:10:00.793Z,25.39
2016-04-12T06:11:00.795Z,25.06
2016-04-12T06:12:00.798Z,25.05
2016-04-12T06:13:00.800Z,25.2
2016-04-12T06:14:00.818Z,25.2
2016-04-12T06:15:00.821Z,25.15
2016-04-12T06:16:00.824Z,25.38
2016-04-12T06:17:00.842Z,25.27
2016-04-12T06:18:00.954Z,25.25
2016-04-12T06:19:00.848Z,25.46
2016-04-12T06:20:00.850Z,25.77
2016-04-12T06:21:00.853Z,26.12
2016-04-12T06:22:00.872Z,26.48
2016-04-12T06:23:00.875Z,26.65
2016-04-12T06:24:00.908Z,26.73
2016-04-12T06:25:00.911Z,26.75
2016-04-12T06:26:00.898Z,26.92
2016-04-12T06:27:00.916Z,27.13
2016-04-12T06:28:00.934Z,27.4
2016-04-12T06:29:00.922Z,27.65
2016-04-12T06:30:00.924Z,27.9
2016-04-12T06:31:00.958Z,28.02
2016-04-12T06:32:00.946Z,28.24
2016-04-12T06:33:01.119Z,28.51
2016-04-12T06:34:00.966Z,28.8
2016-04-12T06:35:00.969Z,29.04
2016-04-12T06:36:00.988Z,29.26
2016-04-12T06:37:00.990Z,29.37
2016-04-12T06:38:00.993Z,29.64
2016-04-12T06:39:01.011Z,29.78
2016-04-12T06:40:01.014Z,29.98
2016-04-12T06:41:01.016Z,30.13
2016-04-12T06:42:01.034Z,30.31
2016-04-12T06:43:01.053Z,30.37
2016-04-12T06:44:01.056Z,30.55
2016-04-12T06:45:01.059Z,30.53
2016-04-12T06:46:01.061Z,30.62
2016-04-12T06:47:01.111Z,30.65
2016-04-12T06:48:01.192Z,30.8
2016-04-12T06:49:01.100Z,30.82
2016-04-12T06:50:01.119Z,30.92
2016-04-12T06:51:01.122Z,30.77
2016-04-12T06:52:01.125Z,30.67
2016-04-12T06:53:01.158Z,30.67
2016-04-12T06:54:01.145Z,30.8
2016-04-12T06:55:01.164Z,31.01
2016-04-12T06:56:01.167Z,31.19
2016-04-12T06:57:01.184Z,31.16
2016-04-12T06:58:01.187Z,31.17
2016-04-12T06:59:01.205Z,31.16
2016-04-12T07:00:01.208Z,30.42
2016-04-12T07:01:01.226Z,29.02
2016-04-12T07:02:01.229Z,27.87
2016-04-12T07:03:01.232Z,27.13
2016-04-12T07:04:01.266Z,26.77
2016-04-12T07:05:01.252Z,26.47
2016-04-12T07:06:01.271Z,26.17
2016-04-12T07:07:01.274Z,25.99
2016-04-12T07:08:01.276Z,25.7
2016-04-12T07:09:01.295Z,25.62
2016-04-12T07:10:01.313Z,25.52
2016-04-12T07:11:01.315Z,25.39
2016-04-12T07:12:01.318Z,25.36
2016-04-12T07:13:01.321Z,25.14
2016-04-12T07:14:01.340Z,25.08
2016-04-12T07:15:01.342Z,25.08
2016-04-12T07:16:01.345Z,24.96
2016-04-12T07:17:01.348Z,24.99
2016-04-12T07:18:01.600Z,24.87
2016-04-12T07:19:01.368Z,24.83
2016-04-12T07:20:01.371Z,24.77
2016-04-12T07:21:01.374Z,24.65
2016-04-12T07:22:01.392Z,24.67
2016-04-12T07:23:01.395Z,24.61
2016-04-12T07:24:01.413Z,24.58
2016-04-12T07:25:01.416Z,24.64
2016-04-12T07:26:01.419Z,24.64
2016-04-12T07:27:01.437Z,24.69
2016-04-12T07:28:01.455Z,24.61
2016-04-12T07:29:01.442Z,24.77
2016-04-12T07:30:01.445Z,24.91
2016-04-12T07:31:01.463Z,24.9
2016-04-12T07:32:01.466Z,24.99
2016-04-12T07:33:01.547Z,24.99
2016-04-12T07:34:01.488Z,24.98
2016-04-12T07:35:01.490Z,25
2016-04-12T07:36:01.492Z,25
2016-04-12T07:37:01.496Z,25.14
2016-04-12T07:38:01.498Z,25.08
2016-04-12T07:39:01.501Z,25.14
2016-04-12T07:40:01.519Z,25.06
2016-04-12T07:41:01.521Z,25.17
2016-04-12T07:42:01.527Z,25.15
2016-04-12T07:43:01.578Z,25.17
2016-04-12T07:44:01.645Z,25.18
2016-04-12T07:45:01.695Z,25.27
2016-04-12T07:46:01.747Z,25.33
2016-04-12T07:47:01.795Z,25.24
2016-04-12T07:48:01.830Z,25.36
2016-04-12T07:49:01.849Z,25.38
2016-04-12T07:50:01.870Z,25.38
2016-04-12T07:51:01.750Z,25.3
2016-04-12T07:52:01.925Z,25.51
2016-04-12T07:53:01.950Z,25.38
2016-04-12T07:54:01.942Z,25.36
2016-04-12T07:55:01.951Z,25.33
2016-04-12T07:56:01.976Z,25.32
2016-04-12T07:57:01.985Z,25.35
2016-04-12T07:58:02.005Z,25.36
2016-04-12T07:59:02.010Z,25.42
2016-04-12T08:00:02.031Z,25.46
2016-04-12T08:01:02.019Z,25.45
2016-04-12T08:02:02.024Z,25.43
2016-04-12T08:03:02.044Z,25.46
2016-04-12T08:04:02.048Z,25.52
2016-04-12T08:05:02.051Z,25.57
2016-04-12T08:06:02.070Z,25.54
2016-04-12T08:07:02.074Z,25.58
2016-04-12T08:08:02.097Z,25.52
2016-04-12T08:09:02.084Z,25.6
2016-04-12T08:10:02.102Z,25.5
2016-04-12T08:11:02.106Z,25.6
2016-04-12T08:12:02.109Z,25.62
2016-04-12T08:13:02.111Z,25.46
2016-04-12T08:14:02.119Z,25.54
2016-04-12T08:15:02.122Z,25.52
2016-04-12T08:16:02.141Z,25.51
2016-04-12T08:17:02.144Z,25.46
2016-04-12T08:18:02.161Z,25.5
2016-04-12T08:19:02.163Z,25.46
2016-04-12T08:20:02.167Z,25.46
2016-04-12T08:21:02.154Z,25.52
2016-04-12T08:22:02.188Z,25.47
2016-04-12T08:23:02.174Z,25.5
2016-04-12T08:24:02.194Z,25.4
2016-04-12T08:25:02.211Z,25.46
2016-04-12T08:26:02.229Z,25.51
2016-04-12T08:27:02.248Z,25.46
2016-04-12T08:28:02.235Z,25.43
2016-04-12T08:29:02.238Z,25.42
2016-04-12T08:30:02.225Z,25.46
2016-04-12T08:31:02.243Z,25.42
2016-04-12T08:32:02.246Z,25.45
2016-04-12T08:33:02.248Z,25.51
2016-04-12T08:34:02.251Z,25.5
2016-04-12T08:35:02.254Z,25.4
2016-04-12T08:36:02.273Z,25.5
2016-04-12T08:37:02.275Z,25.69
2016-04-12T08:38:02.278Z,25.97
2016-04-12T08:39:02.281Z,26.32
2016-04-12T08:40:02.299Z,26.45
2016-04-12T08:41:02.301Z,26.54
2016-04-12T08:42:02.304Z,26.45
2016-04-12T08:43:02.323Z,26.44
2016-04-12T08:44:02.325Z,26.35
2016-04-12T08:45:02.328Z,26.4
2016-04-12T08:46:02.347Z,26.45
2016-04-12T08:47:02.349Z,26.44
2016-04-12T08:48:02.352Z,26.36
2016-04-12T08:49:02.355Z,26.4
2016-04-12T08:50:02.372Z,26.32
2016-04-12T08:51:02.375Z,26.4
2016-04-12T08:52:02.378Z,26.43
2016-04-12T08:53:02.380Z,26.4
2016-04-12T08:54:02.399Z,26.3
2016-04-12T08:55:02.386Z,26.18
2016-04-12T08:56:02.405Z,26.06
2016-04-12T08:57:02.407Z,26.01
2016-04-12T08:58:02.425Z,25.97
2016-04-12T08:59:02.428Z,26.01
2016-04-12T09:00:02.446Z,26.01
2016-04-12T09:01:02.433Z,25.98
2016-04-12T09:02:02.436Z,25.95
2016-04-12T09:03:02.454Z,25.91
2016-04-12T09:04:02.473Z,25.87
2016-04-12T09:05:02.459Z,25.83
2016-04-12T09:06:02.493Z,25.73
2016-04-12T09:07:02.481Z,25.72
2016-04-12T09:08:02.484Z,25.76
2016-04-12T09:09:02.491Z,25.77
2016-04-12T09:10:02.494Z,25.73
2016-04-12T09:11:02.497Z,25.67
2016-04-12T09:12:02.531Z,25.73
2016-04-12T09:13:02.533Z,25.72
2016-04-12T09:14:02.536Z,25.7
2016-04-12T09:15:02.522Z,25.7
2016-04-12T09:16:02.541Z,25.72
2016-04-12T09:17:02.544Z,25.72
2016-04-12T09:18:02.562Z,25.7
2016-04-12T09:19:02.564Z,25.61
2016-04-12T09:20:02.567Z,25.72
2016-04-12T09:21:02.569Z,25.5
2016-04-12T09:22:02.604Z,25.52
2016-04-12T09:23:02.591Z,25.46
2016-04-12T09:24:02.610Z,25.39
2016-04-12T09:25:02.612Z,25.47
2016-04-12T09:26:02.615Z,25.46
2016-04-12T09:27:02.618Z,25.5
2016-04-12T09:28:02.635Z,25.61
2016-04-12T09:29:02.638Z,25.43
2016-04-12T09:30:02.641Z,25.38
2016-04-12T09:31:16.769Z,25.4
2016-04-12T09:32:02.662Z,25.43
2016-04-12T09:33:02.665Z,25.38
2016-04-12T09:34:02.684Z,25.46
2016-04-12T09:35:02.702Z,25.43
2016-04-12T09:36:02.704Z,25.42
2016-04-12T09:37:02.692Z,25.45
2016-04-12T09:38:02.694Z,25.51
2016-04-12T09:39:02.712Z,25.5
2016-04-12T09:40:02.715Z,25.43
2016-04-12T09:41:02.734Z,25.47
2016-04-12T09:42:02.736Z,25.46
2016-04-12T09:43:02.770Z,25.36
2016-04-12T09:44:02.725Z,25.35
2016-04-12T09:45:02.744Z,25.36
2016-04-12T09:46:02.762Z,25.36
2016-04-12T09:47:02.765Z,25.39
2016-04-12T09:48:02.767Z,25.4
2016-04-12T09:49:02.770Z,25.33
2016-04-12T09:50:02.789Z,25.33
2016-04-12T09:51:02.791Z,25.38
2016-04-12T09:52:02.793Z,25.21
2016-04-12T09:53:02.812Z,25.13
2016-04-12T09:54:02.831Z,25.14
2016-04-12T09:55:02.818Z,25.05
2016-04-12T09:56:02.821Z,25.13
2016-04-12T09:57:02.838Z,25.17
2016-04-12T09:58:02.841Z,25.13
2016-04-12T09:59:02.844Z,25.42
2016-04-12T10:00:02.847Z,25.38
2016-04-12T10:01:02.882Z,25.43
2016-04-12T10:02:02.884Z,25.33
2016-04-12T10:03:02.870Z,25.14
2016-04-12T10:04:02.873Z,25.23
2016-04-12T10:05:02.938Z,25.17
2016-04-12T10:06:02.909Z,25.24
2016-04-12T10:07:02.898Z,25.08
2016-04-12T10:08:03.056Z,25.15
2016-04-12T10:09:02.903Z,25.08
2016-04-12T10:10:03.076Z,25.14
2016-04-12T10:11:02.939Z,25.03
2016-04-12T10:12:02.942Z,25.14
2016-04-12T10:13:02.944Z,25.15
2016-04-12T10:14:02.962Z,25.09
2016-04-12T10:15:02.964Z,25.09
2016-04-12T10:16:02.968Z,25.14
2016-04-12T10:17:02.970Z,25.06
2016-04-12T10:18:02.973Z,25.09
2016-04-12T10:19:02.991Z,25.09
2016-04-12T10:20:02.994Z,25.13
2016-04-12T10:21:03.013Z,25.05
2016-04-12T10:22:03.000Z,25.03
2016-04-12T10:23:03.019Z,24.99
2016-04-12T10:24:03.021Z,24.95
2016-04-12T10:25:03.023Z,25.05
2016-04-12T10:26:03.041Z,25.02
2016-04-12T10:27:03.060Z,24.99
2016-04-12T10:28:03.047Z,25.03
2016-04-12T10:29:03.065Z,24.95
2016-04-12T10:30:03.052Z,24.98
2016-04-12T10:31:03.071Z,24.96
2016-04-12T10:32:03.073Z,25.05
2016-04-12T10:33:03.076Z,24.93
2016-04-12T10:34:03.079Z,24.9
2016-04-12T10:35:03.097Z,24.95
2016-04-12T10:36:04.163Z,25.02
2016-04-12T10:37:03.103Z,24.99
2016-04-12T10:38:03.106Z,24.91
2016-04-12T10:39:03.108Z,25
2016-04-12T10:40:03.111Z,24.98
2016-04-12T10:41:03.128Z,25.02
2016-04-12T10:42:03.147Z,25.09
2016-04-12T10:43:03.151Z,24.99
2016-04-12T10:44:03.153Z,24.96
2016-04-12T10:45:03.156Z,24.95
2016-04-12T10:46:03.173Z,24.83
2016-04-12T10:47:03.176Z,24.95
2016-04-12T10:48:03.195Z,24.85
2016-04-12T10:49:03.307Z,24.87
2016-04-12T10:50:03.200Z,24.87
2016-04-12T10:51:03.202Z,25
2016-04-12T10:52:03.206Z,25
2016-04-12T10:53:03.208Z,24.96
2016-04-12T10:54:03.227Z,24.83
2016-04-12T10:55:03.230Z,24.81
2016-04-12T10:56:03.247Z,24.84
2016-04-12T10:57:03.250Z,24.83
2016-04-12T10:58:03.252Z,24.93
2016-04-12T10:59:03.271Z,24.87
2016-04-12T11:00:03.274Z,24.93
2016-04-12T11:01:31.510Z,24.88
2016-04-12T11:02:03.279Z,24.83
2016-04-12T11:03:03.298Z,24.83
2016-04-12T11:04:03.628Z,24.98
2016-04-12T11:05:03.303Z,24.9
2016-04-12T11:06:03.321Z,24.88
2016-04-12T11:07:03.370Z,24.95
2016-04-12T11:08:03.326Z,24.88
2016-04-12T11:09:03.330Z,24.9
2016-04-12T11:10:03.363Z,25
2016-04-12T11:11:03.365Z,25.02
2016-04-12T11:12:03.353Z,24.93
2016-04-12T11:13:03.355Z,24.87
2016-04-12T11:14:03.359Z,24.96
2016-04-12T11:15:03.376Z,24.96
2016-04-12T11:16:03.379Z,24.91
2016-04-12T11:17:03.381Z,25.05
2016-04-12T11:18:03.400Z,24.9
2016-04-12T11:19:03.559Z,24.95
2016-04-12T11:20:03.405Z,24.84
2016-04-12T11:21:03.408Z,24.91
2016-04-12T11:22:03.427Z,24.96
2016-04-12T11:23:03.445Z,24.99
2016-04-12T11:24:03.276Z,24.9
2016-04-12T11:25:03.435Z,24.98
2016-04-12T11:26:03.469Z,24.93
2016-04-12T11:27:03.455Z,24.88
2016-04-12T11:28:03.458Z,24.95
2016-04-12T11:29:03.461Z,24.95
2016-04-12T11:30:03.480Z,24.83
2016-04-12T11:31:03.483Z,24.9
2016-04-12T11:32:03.484Z,24.83
2016-04-12T11:33:03.504Z,24.69
2016-04-12T11:34:03.616Z,24.68
2016-04-12T11:35:03.509Z,24.65
2016-04-12T11:36:03.527Z,24.78
2016-04-12T11:37:03.514Z,24.81
2016-04-12T11:38:03.532Z,24.81
2016-04-12T11:39:03.534Z,24.76
2016-04-12T11:40:03.537Z,24.84
2016-04-12T11:41:03.618Z,24.84
2016-04-12T11:42:03.605Z,24.91
2016-04-12T11:43:03.623Z,24.9
2016-04-12T11:44:03.596Z,24.83
2016-04-12T11:45:03.567Z,24.95
2016-04-12T11:46:03.584Z,24.96
2016-04-12T11:47:03.587Z,25.02
2016-04-12T11:48:03.606Z,25
2016-04-12T11:49:03.672Z,25.02
2016-04-12T11:50:03.611Z,25.02
2016-04-12T11:51:03.614Z,25
2016-04-12T11:52:03.460Z,24.96
2016-04-12T11:53:03.635Z,25.06
2016-04-12T11:54:03.638Z,25
2016-04-12T11:55:03.641Z,25
2016-04-12T11:56:03.643Z,24.98
2016-04-12T11:57:03.802Z,24.98
2016-04-12T11:58:03.508Z,24.99
2016-04-12T11:59:03.683Z,24.85
2016-04-12T12:00:03.686Z,24.84
2016-04-12T12:01:03.688Z,24.8
2016-04-12T12:02:03.691Z,24.88
2016-04-12T12:03:03.552Z,24.78
2016-04-12T12:04:03.727Z,24.77
2016-04-12T12:05:03.715Z,24.77
2016-04-12T12:06:03.748Z,24.65
2016-04-12T12:07:03.735Z,24.6
2016-04-12T12:08:03.754Z,24.53
2016-04-12T12:09:03.740Z,24.52
2016-04-12T12:10:03.759Z,24.46
2016-04-12T12:11:03.776Z,24.47
2016-04-12T12:12:03.764Z,24.58
2016-04-12T12:13:03.768Z,24.55
2016-04-12T12:14:03.770Z,24.49
2016-04-12T12:15:03.772Z,24.52
2016-04-12T12:16:03.790Z,24.52
2016-04-12T12:17:03.793Z,24.53
2016-04-12T12:18:03.796Z,24.5
2016-04-12T12:19:03.690Z,24.5
2016-04-12T12:20:03.817Z,24.5
2016-04-12T12:21:03.820Z,24.49
2016-04-12T12:22:03.839Z,24.45
2016-04-12T12:23:03.841Z,24.47
2016-04-12T12:24:03.844Z,24.45
2016-04-12T12:25:03.847Z,24.4
2016-04-12T12:26:03.849Z,24.43
2016-04-12T12:27:03.883Z,24.45
2016-04-12T12:28:03.886Z,24.49
2016-04-12T12:29:03.888Z,24.46
2016-04-12T12:30:03.735Z,24.43
2016-04-12T12:31:03.738Z,24.5
2016-04-12T12:32:03.896Z,24.39
2016-04-12T12:33:03.899Z,24.39
2016-04-12T12:34:04.043Z,24.45
2016-04-12T12:35:03.920Z,24.42
2016-04-12T12:36:03.766Z,24.42
2016-04-12T12:37:03.769Z,24.34
2016-04-12T12:38:03.929Z,24.42
2016-04-12T12:39:03.946Z,24.35
2016-04-12T12:40:03.949Z,24.37
2016-04-12T12:41:03.951Z,24.32
2016-04-12T12:42:03.954Z,24.31
2016-04-12T12:43:03.988Z,24.35
2016-04-12T12:44:03.976Z,24.43
2016-04-12T12:45:03.994Z,24.3
2016-04-12T12:46:03.981Z,24.37
2016-04-12T12:47:03.998Z,24.42
2016-04-12T12:48:04.001Z,24.43
2016-04-12T12:49:04.067Z,24.37
2016-04-12T12:50:04.022Z,24.35
2016-04-12T12:51:04.026Z,24.35
2016-04-12T12:52:04.028Z,24.39
2016-04-12T12:53:04.030Z,24.34
2016-04-12T12:54:04.049Z,24.45
2016-04-12T12:55:04.052Z,24.34
2016-04-12T12:56:04.070Z,24.34
2016-04-12T12:57:04.057Z,24.35
2016-04-12T12:58:04.091Z,24.45